sensor_id;sensor_type;location;lat;lon;timestamp;P1;durP1;ratioP1;P2;durP2;ratioP2
4244;SDS011;2136;48.502;9.194;2023-04-01T00:00:48;1.47;;;0.90;;
4244;SDS011;2136;48.502;9.194;2023-04-01T00:03:17;1.00;;;0.90;;
4244;SDS011;2136;48.502;9.194;2023-04-01T00:05:44;1.07;;;0.83;;
4244;SDS011;2136;48.502;9.194;2023-04-01T00:08:11;1.57;;;0.80;;
4244;SDS011;2136;48.502;9.194;2023-04-01T00:10:40;2.70;;;0.83;;
4244;SDS011;2136;48.502;9.194;2023-04-01T00:13:06;2.00;;;0.93;;
4244;SDS011;2136;48.502;9.194;2023-04-01T00:15:34;0.97;;;0.70;;
4244;SDS011;2136;48.502;9.194;2023-04-01T00:18:01;0.70;;;0.70;;
4244;SDS011;2136;48.502;9.194;2023-04-01T00:20:28;1.03;;;0.80;;
4244;SDS011;2136;48.502;9.194;2023-04-01T00:22:55;2.53;;;0.80;;
4244;SDS011;2136;48.502;9.194;2023-04-01T00:25:22;3.63;;;0.90;;
4244;SDS011;2136;48.502;9.194;2023-04-01T00:27:50;0.77;;;0.60;;
4244;SDS011;2136;48.502;9.194;2023-04-01T00:30:17;1.43;;;0.93;;
4244;SDS011;2136;48.502;9.194;2023-04-01T00:32:44;0.70;;;0.70;;
4244;SDS011;2136;48.502;9.194;2023-04-01T00:35:11;1.07;;;0.90;;
4244;SDS011;2136;48.502;9.194;2023-04-01T00:37:38;1.07;;;0.70;;
4244;SDS011;2136;48.502;9.194;2023-04-01T00:40:06;1.03;;;0.90;;
4244;SDS011;2136;48.502;9.194;2023-04-01T00:42:34;1.03;;;0.80;;
4244;SDS011;2136;48.502;9.194;2023-04-01T00:47:55;1.90;;;0.70;;
4244;SDS011;2136;48.502;9.194;2023-04-01T00:50:22;1.90;;;0.70;;
4244;SDS011;2136;48.502;9.194;2023-04-01T00:52:51;1.17;;;1.07;;
4244;SDS011;2136;48.502;9.194;2023-04-01T00:55:18;1.00;;;0.90;;
4244;SDS011;2136;48.502;9.194;2023-04-01T00:57:47;2.10;;;0.90;;
4244;SDS011;2136;48.502;9.194;2023-04-01T01:00:16;3.13;;;1.00;;
4244;SDS011;2136;48.502;9.194;2023-04-01T01:02:45;1.37;;;0.80;;
4244;SDS011;2136;48.502;9.194;2023-04-01T01:05:15;0.60;;;0.60;;
4244;SDS011;2136;48.502;9.194;2023-04-01T01:07:45;0.60;;;0.60;;
4244;SDS011;2136;48.502;9.194;2023-04-01T01:10:16;1.17;;;0.70;;
4244;SDS011;2136;48.502;9.194;2023-04-01T01:12:45;1.47;;;0.60;;
4244;SDS011;2136;48.502;9.194;2023-04-01T01:15:16;0.83;;;0.80;;
4244;SDS011;2136;48.502;9.194;2023-04-01T01:17:50;1.30;;;0.80;;
4244;SDS011;2136;48.502;9.194;2023-04-01T01:20:27;1.03;;;0.90;;
4244;SDS011;2136;48.502;9.194;2023-04-01T01:23:28;0.60;;;0.60;;
4244;SDS011;2136;48.502;9.194;2023-04-01T01:26:12;2.47;;;1.67;;
4244;SDS011;2136;48.502;9.194;2023-04-01T01:28:55;2.00;;;0.80;;
4244;SDS011;2136;48.502;9.194;2023-04-01T01:31:34;0.60;;;0.60;;
4244;SDS011;2136;48.502;9.194;2023-04-01T01:34:11;0.60;;;0.60;;
4244;SDS011;2136;48.502;9.194;2023-04-01T01:36:46;0.80;;;0.80;;
4244;SDS011;2136;48.502;9.194;2023-04-01T01:39:18;0.60;;;0.60;;
4244;SDS011;2136;48.502;9.194;2023-04-01T01:41:51;0.70;;;0.70;;
4244;SDS011;2136;48.502;9.194;2023-04-01T01:44:19;1.47;;;0.87;;
4244;SDS011;2136;48.502;9.194;2023-04-01T01:46:48;3.07;;;0.60;;
4244;SDS011;2136;48.502;9.194;2023-04-01T01:49:16;1.33;;;0.60;;
4244;SDS011;2136;48.502;9.194;2023-04-01T01:51:47;0.60;;;0.60;;
4244;SDS011;2136;48.502;9.194;2023-04-01T01:54:14;0.70;;;0.70;;
4244;SDS011;2136;48.502;9.194;2023-04-01T01:56:42;0.60;;;0.60;;
4244;SDS011;2136;48.502;9.194;2023-04-01T01:59:14;0.60;;;0.60;;
4244;SDS011;2136;48.502;9.194;2023-04-01T02:01:45;0.60;;;0.60;;
4244;SDS011;2136;48.502;9.194;2023-04-01T02:04:15;2.40;;;0.67;;
4244;SDS011;2136;48.502;9.194;2023-04-01T02:06:45;0.50;;;0.50;;
4244;SDS011;2136;48.502;9.194;2023-04-01T02:09:17;0.60;;;0.60;;
4244;SDS011;2136;48.502;9.194;2023-04-01T02:11:46;0.90;;;0.67;;
4244;SDS011;2136;48.502;9.194;2023-04-01T02:14:17;0.63;;;0.60;;
4244;SDS011;2136;48.502;9.194;2023-04-01T02:16:47;0.60;;;0.60;;
4244;SDS011;2136;48.502;9.194;2023-04-01T02:19:19;0.60;;;0.60;;
4244;SDS011;2136;48.502;9.194;2023-04-01T02:21:50;0.70;;;0.70;;
4244;SDS011;2136;48.502;9.194;2023-04-01T02:24:21;0.60;;;0.60;;
4244;SDS011;2136;48.502;9.194;2023-04-01T02:26:51;0.60;;;0.57;;
4244;SDS011;2136;48.502;9.194;2023-04-01T02:29:18;0.93;;;0.60;;
4244;SDS011;2136;48.502;9.194;2023-04-01T02:31:47;0.60;;;0.60;;
4244;SDS011;2136;48.502;9.194;2023-04-01T02:34:16;0.60;;;0.60;;
4244;SDS011;2136;48.502;9.194;2023-04-01T02:36:42;0.70;;;0.70;;
4244;SDS011;2136;48.502;9.194;2023-04-01T02:39:11;0.60;;;0.60;;
4244;SDS011;2136;48.502;9.194;2023-04-01T02:41:39;4.33;;;0.70;;
4244;SDS011;2136;48.502;9.194;2023-04-01T02:44:07;0.60;;;0.60;;
4244;SDS011;2136;48.502;9.194;2023-04-01T02:46:34;3.40;;;0.70;;
4244;SDS011;2136;48.502;9.194;2023-04-01T02:49:01;0.67;;;0.67;;
4244;SDS011;2136;48.502;9.194;2023-04-01T02:51:28;0.60;;;0.60;;
4244;SDS011;2136;48.502;9.194;2023-04-01T02:53:55;0.77;;;0.70;;
4244;SDS011;2136;48.502;9.194;2023-04-01T02:56:23;0.50;;;0.50;;
4244;SDS011;2136;48.502;9.194;2023-04-01T02:58:51;1.70;;;0.80;;
4244;SDS011;2136;48.502;9.194;2023-04-01T03:01:18;0.57;;;0.57;;
4244;SDS011;2136;48.502;9.194;2023-04-01T03:03:44;1.43;;;0.70;;
4244;SDS011;2136;48.502;9.194;2023-04-01T03:06:12;1.23;;;0.60;;
4244;SDS011;2136;48.502;9.194;2023-04-01T03:08:40;1.23;;;0.80;;
4244;SDS011;2136;48.502;9.194;2023-04-01T03:11:07;0.83;;;0.50;;
4244;SDS011;2136;48.502;9.194;2023-04-01T03:13:36;0.60;;;0.60;;
4244;SDS011;2136;48.502;9.194;2023-04-01T03:16:03;1.27;;;0.60;;
4244;SDS011;2136;48.502;9.194;2023-04-01T03:18:30;0.63;;;0.63;;
4244;SDS011;2136;48.502;9.194;2023-04-01T03:20:57;0.60;;;0.60;;
4244;SDS011;2136;48.502;9.194;2023-04-01T03:23:38;1.00;;;0.60;;
4244;SDS011;2136;48.502;9.194;2023-04-01T03:26:05;0.60;;;0.60;;
4244;SDS011;2136;48.502;9.194;2023-04-01T03:28:32;0.60;;;0.60;;
4244;SDS011;2136;48.502;9.194;2023-04-01T03:31:00;0.60;;;0.60;;
4244;SDS011;2136;48.502;9.194;2023-04-01T03:33:27;0.70;;;0.70;;
4244;SDS011;2136;48.502;9.194;2023-04-01T03:35:54;0.60;;;0.60;;
4244;SDS011;2136;48.502;9.194;2023-04-01T03:38:21;0.70;;;0.70;;
4244;SDS011;2136;48.502;9.194;2023-04-01T03:40:47;1.13;;;0.70;;
4244;SDS011;2136;48.502;9.194;2023-04-01T03:43:14;3.90;;;0.60;;
4244;SDS011;2136;48.502;9.194;2023-04-01T03:45:43;0.77;;;0.60;;
4244;SDS011;2136;48.502;9.194;2023-04-01T03:48:11;0.60;;;0.60;;
4244;SDS011;2136;48.502;9.194;2023-04-01T03:50:39;0.67;;;0.60;;
4244;SDS011;2136;48.502;9.194;2023-04-01T03:53:06;0.60;;;0.60;;
4244;SDS011;2136;48.502;9.194;2023-04-01T03:55:32;0.60;;;0.60;;
4244;SDS011;2136;48.502;9.194;2023-04-01T03:57:59;0.70;;;0.70;;
4244;SDS011;2136;48.502;9.194;2023-04-01T04:00:27;0.50;;;0.50;;
4244;SDS011;2136;48.502;9.194;2023-04-01T04:02:54;0.60;;;0.60;;
4244;SDS011;2136;48.502;9.194;2023-04-01T04:05:23;0.57;;;0.57;;
4244;SDS011;2136;48.502;9.194;2023-04-01T04:07:50;0.97;;;0.60;;
4244;SDS011;2136;48.502;9.194;2023-04-01T04:10:18;0.50;;;0.50;;
4244;SDS011;2136;48.502;9.194;2023-04-01T04:12:48;4.23;;;0.70;;
4244;SDS011;2136;48.502;9.194;2023-04-01T04:15:15;1.60;;;0.80;;
4244;SDS011;2136;48.502;9.194;2023-04-01T04:17:43;2.47;;;0.80;;
4244;SDS011;2136;48.502;9.194;2023-04-01T04:20:10;0.87;;;0.70;;
4244;SDS011;2136;48.502;9.194;2023-04-01T04:22:39;0.70;;;0.70;;
4244;SDS011;2136;48.502;9.194;2023-04-01T04:25:06;2.90;;;0.90;;
4244;SDS011;2136;48.502;9.194;2023-04-01T04:27:33;1.13;;;0.73;;
4244;SDS011;2136;48.502;9.194;2023-04-01T04:30:01;1.00;;;0.80;;
4244;SDS011;2136;48.502;9.194;2023-04-01T04:32:29;8.67;;;1.20;;
4244;SDS011;2136;48.502;9.194;2023-04-01T04:34:56;5.07;;;1.13;;
4244;SDS011;2136;48.502;9.194;2023-04-01T04:37:23;0.80;;;0.80;;
4244;SDS011;2136;48.502;9.194;2023-04-01T04:39:52;0.70;;;0.70;;
4244;SDS011;2136;48.502;9.194;2023-04-01T04:42:19;3.97;;;0.90;;
4244;SDS011;2136;48.502;9.194;2023-04-01T04:44:46;2.37;;;1.23;;
4244;SDS011;2136;48.502;9.194;2023-04-01T04:47:13;2.73;;;1.20;;
4244;SDS011;2136;48.502;9.194;2023-04-01T04:49:39;2.10;;;0.80;;
4244;SDS011;2136;48.502;9.194;2023-04-01T04:52:06;2.20;;;0.90;;
4244;SDS011;2136;48.502;9.194;2023-04-01T04:54:33;1.77;;;1.00;;
4244;SDS011;2136;48.502;9.194;2023-04-01T04:57:01;4.50;;;0.80;;
4244;SDS011;2136;48.502;9.194;2023-04-01T04:59:28;2.60;;;0.77;;
4244;SDS011;2136;48.502;9.194;2023-04-01T05:01:55;4.57;;;0.77;;
4244;SDS011;2136;48.502;9.194;2023-04-01T05:04:22;1.53;;;0.80;;
4244;SDS011;2136;48.502;9.194;2023-04-01T05:06:48;1.67;;;0.60;;
4244;SDS011;2136;48.502;9.194;2023-04-01T05:09:16;1.50;;;0.80;;
4244;SDS011;2136;48.502;9.194;2023-04-01T05:11:43;2.10;;;0.83;;
4244;SDS011;2136;48.502;9.194;2023-04-01T05:14:15;0.73;;;0.70;;
4244;SDS011;2136;48.502;9.194;2023-04-01T05:16:42;1.37;;;0.80;;
4244;SDS011;2136;48.502;9.194;2023-04-01T05:19:09;1.63;;;0.80;;
4244;SDS011;2136;48.502;9.194;2023-04-01T05:21:36;0.70;;;0.70;;
4244;SDS011;2136;48.502;9.194;2023-04-01T05:24:03;0.60;;;0.60;;
4244;SDS011;2136;48.502;9.194;2023-04-01T05:26:33;2.73;;;1.03;;
4244;SDS011;2136;48.502;9.194;2023-04-01T05:29:00;0.90;;;0.60;;
4244;SDS011;2136;48.502;9.194;2023-04-01T05:31:28;0.70;;;0.70;;
4244;SDS011;2136;48.502;9.194;2023-04-01T05:33:55;0.60;;;0.60;;
4244;SDS011;2136;48.502;9.194;2023-04-01T05:36:21;0.60;;;0.60;;
4244;SDS011;2136;48.502;9.194;2023-04-01T05:38:48;1.43;;;1.30;;
4244;SDS011;2136;48.502;9.194;2023-04-01T05:41:15;2.60;;;1.20;;
4244;SDS011;2136;48.502;9.194;2023-04-01T05:43:42;1.90;;;0.80;;
4244;SDS011;2136;48.502;9.194;2023-04-01T05:46:09;1.23;;;1.00;;
4244;SDS011;2136;48.502;9.194;2023-04-01T05:48:38;2.10;;;0.80;;
4244;SDS011;2136;48.502;9.194;2023-04-01T05:51:05;0.60;;;0.60;;
4244;SDS011;2136;48.502;9.194;2023-04-01T05:53:31;0.80;;;0.80;;
4244;SDS011;2136;48.502;9.194;2023-04-01T05:56:01;3.30;;;0.70;;
4244;SDS011;2136;48.502;9.194;2023-04-01T05:58:29;3.33;;;0.70;;
4244;SDS011;2136;48.502;9.194;2023-04-01T06:00:59;1.23;;;0.80;;
4244;SDS011;2136;48.502;9.194;2023-04-01T06:03:27;1.00;;;0.67;;
4244;SDS011;2136;48.502;9.194;2023-04-01T06:05:55;0.67;;;0.67;;
4244;SDS011;2136;48.502;9.194;2023-04-01T06:08:23;1.60;;;0.90;;
4244;SDS011;2136;48.502;9.194;2023-04-01T06:10:55;0.80;;;0.73;;
4244;SDS011;2136;48.502;9.194;2023-04-01T06:13:37;2.03;;;0.63;;
4244;SDS011;2136;48.502;9.194;2023-04-01T06:16:18;1.50;;;0.70;;
4244;SDS011;2136;48.502;9.194;2023-04-01T06:18:55;0.60;;;0.60;;
4244;SDS011;2136;48.502;9.194;2023-04-01T06:21:54;2.50;;;0.80;;
4244;SDS011;2136;48.502;9.194;2023-04-01T06:27:48;0.80;;;0.80;;
4244;SDS011;2136;48.502;9.194;2023-04-01T06:30:38;1.77;;;0.70;;
4244;SDS011;2136;48.502;9.194;2023-04-01T06:36:09;3.13;;;0.70;;
4244;SDS011;2136;48.502;9.194;2023-04-01T06:38:59;0.70;;;0.70;;
4244;SDS011;2136;48.502;9.194;2023-04-01T06:44:44;1.13;;;1.00;;
4244;SDS011;2136;48.502;9.194;2023-04-01T06:47:23;0.87;;;0.70;;
4244;SDS011;2136;48.502;9.194;2023-04-01T06:50:02;2.50;;;0.70;;
4244;SDS011;2136;48.502;9.194;2023-04-01T06:52:36;1.57;;;0.70;;
4244;SDS011;2136;48.502;9.194;2023-04-01T06:55:20;0.80;;;0.80;;
4244;SDS011;2136;48.502;9.194;2023-04-01T06:57:55;2.33;;;0.60;;
4244;SDS011;2136;48.502;9.194;2023-04-01T07:00:26;1.90;;;0.70;;
4244;SDS011;2136;48.502;9.194;2023-04-01T07:02:59;0.70;;;0.70;;
4244;SDS011;2136;48.502;9.194;2023-04-01T07:05:33;2.53;;;0.97;;
4244;SDS011;2136;48.502;9.194;2023-04-01T07:08:01;0.60;;;0.60;;
4244;SDS011;2136;48.502;9.194;2023-04-01T07:10:32;1.00;;;0.90;;
4244;SDS011;2136;48.502;9.194;2023-04-01T07:13:06;2.57;;;0.83;;
4244;SDS011;2136;48.502;9.194;2023-04-01T07:15:39;0.93;;;0.60;;
4244;SDS011;2136;48.502;9.194;2023-04-01T07:18:10;0.70;;;0.70;;
4244;SDS011;2136;48.502;9.194;2023-04-01T07:20:42;1.33;;;0.70;;
4244;SDS011;2136;48.502;9.194;2023-04-01T07:23:10;1.10;;;0.90;;
4244;SDS011;2136;48.502;9.194;2023-04-01T07:25:49;2.13;;;1.00;;
4244;SDS011;2136;48.502;9.194;2023-04-01T07:28:18;1.07;;;1.07;;
4244;SDS011;2136;48.502;9.194;2023-04-01T07:30:49;2.13;;;0.80;;
4244;SDS011;2136;48.502;9.194;2023-04-01T07:33:24;2.93;;;1.00;;
4244;SDS011;2136;48.502;9.194;2023-04-01T07:36:00;4.40;;;0.93;;
4244;SDS011;2136;48.502;9.194;2023-04-01T07:38:33;1.53;;;0.80;;
4244;SDS011;2136;48.502;9.194;2023-04-01T07:41:12;3.00;;;0.90;;
4244;SDS011;2136;48.502;9.194;2023-04-01T07:43:51;1.30;;;0.70;;
4244;SDS011;2136;48.502;9.194;2023-04-01T07:46:33;1.13;;;0.80;;
4244;SDS011;2136;48.502;9.194;2023-04-01T07:49:27;1.87;;;0.70;;
4244;SDS011;2136;48.502;9.194;2023-04-01T07:52:04;2.00;;;1.00;;
4244;SDS011;2136;48.502;9.194;2023-04-01T07:54:38;0.97;;;0.70;;
4244;SDS011;2136;48.502;9.194;2023-04-01T07:57:14;1.67;;;0.80;;
4244;SDS011;2136;48.502;9.194;2023-04-01T07:59:49;0.50;;;0.50;;
4244;SDS011;2136;48.502;9.194;2023-04-01T08:02:27;0.70;;;0.70;;
4244;SDS011;2136;48.502;9.194;2023-04-01T08:05:04;0.73;;;0.67;;
4244;SDS011;2136;48.502;9.194;2023-04-01T08:07:44;1.93;;;0.67;;
4244;SDS011;2136;48.502;9.194;2023-04-01T08:10:17;1.20;;;1.00;;
4244;SDS011;2136;48.502;9.194;2023-04-01T08:12:53;2.80;;;0.70;;
4244;SDS011;2136;48.502;9.194;2023-04-01T08:15:31;1.60;;;0.73;;
4244;SDS011;2136;48.502;9.194;2023-04-01T08:18:04;2.20;;;0.70;;
4244;SDS011;2136;48.502;9.194;2023-04-01T08:20:39;1.07;;;0.60;;
4244;SDS011;2136;48.502;9.194;2023-04-01T08:23:11;0.70;;;0.70;;
4244;SDS011;2136;48.502;9.194;2023-04-01T08:25:43;0.67;;;0.67;;
4244;SDS011;2136;48.502;9.194;2023-04-01T08:28:17;0.70;;;0.70;;
4244;SDS011;2136;48.502;9.194;2023-04-01T08:30:51;1.73;;;0.83;;
4244;SDS011;2136;48.502;9.194;2023-04-01T08:33:22;2.07;;;0.80;;
4244;SDS011;2136;48.502;9.194;2023-04-01T08:35:52;0.80;;;0.80;;
4244;SDS011;2136;48.502;9.194;2023-04-01T08:38:23;1.00;;;1.00;;
4244;SDS011;2136;48.502;9.194;2023-04-01T08:40:58;0.70;;;0.70;;
4244;SDS011;2136;48.502;9.194;2023-04-01T08:46:29;0.63;;;0.63;;
4244;SDS011;2136;48.502;9.194;2023-04-01T08:49:27;0.60;;;0.60;;
4244;SDS011;2136;48.502;9.194;2023-04-01T08:52:29;1.13;;;0.80;;
4244;SDS011;2136;48.502;9.194;2023-04-01T08:55:12;0.70;;;0.60;;
4244;SDS011;2136;48.502;9.194;2023-04-01T08:57:53;0.60;;;0.60;;
4244;SDS011;2136;48.502;9.194;2023-04-01T09:00:46;0.60;;;0.60;;
4244;SDS011;2136;48.502;9.194;2023-04-01T09:03:20;0.80;;;0.70;;
4244;SDS011;2136;48.502;9.194;2023-04-01T09:06:05;0.60;;;0.60;;
4244;SDS011;2136;48.502;9.194;2023-04-01T09:08:50;0.60;;;0.60;;
4244;SDS011;2136;48.502;9.194;2023-04-01T09:11:28;0.73;;;0.70;;
4244;SDS011;2136;48.502;9.194;2023-04-01T09:17:12;1.87;;;0.73;;
4244;SDS011;2136;48.502;9.194;2023-04-01T09:20:06;1.87;;;1.40;;
4244;SDS011;2136;48.502;9.194;2023-04-01T09:22:58;1.10;;;0.97;;
4244;SDS011;2136;48.502;9.194;2023-04-01T09:25:48;0.60;;;0.60;;
4244;SDS011;2136;48.502;9.194;2023-04-01T09:28:26;0.90;;;0.77;;
4244;SDS011;2136;48.502;9.194;2023-04-01T09:31:21;0.70;;;0.70;;
4244;SDS011;2136;48.502;9.194;2023-04-01T09:34:07;3.23;;;0.73;;
4244;SDS011;2136;48.502;9.194;2023-04-01T09:36:52;2.73;;;0.73;;
4244;SDS011;2136;48.502;9.194;2023-04-01T09:39:36;1.83;;;0.70;;
4244;SDS011;2136;48.502;9.194;2023-04-01T09:42:14;2.10;;;0.70;;
4244;SDS011;2136;48.502;9.194;2023-04-01T09:44:51;0.93;;;0.93;;
4244;SDS011;2136;48.502;9.194;2023-04-01T09:47:27;0.80;;;0.80;;
4244;SDS011;2136;48.502;9.194;2023-04-01T09:50:12;6.37;;;3.03;;
4244;SDS011;2136;48.502;9.194;2023-04-01T09:52:49;0.80;;;0.80;;
4244;SDS011;2136;48.502;9.194;2023-04-01T09:55:35;0.73;;;0.73;;
4244;SDS011;2136;48.502;9.194;2023-04-01T10:04:51;1.53;;;0.70;;
4244;SDS011;2136;48.502;9.194;2023-04-01T10:14:04;1.20;;;0.60;;
4244;SDS011;2136;48.502;9.194;2023-04-01T10:16:55;0.70;;;0.70;;
4244;SDS011;2136;48.502;9.194;2023-04-01T10:23:00;0.80;;;0.80;;
4244;SDS011;2136;48.502;9.194;2023-04-01T10:25:52;0.80;;;0.80;;
4244;SDS011;2136;48.502;9.194;2023-04-01T10:28:47;1.47;;;1.20;;
4244;SDS011;2136;48.502;9.194;2023-04-01T10:31:53;0.80;;;0.80;;
4244;SDS011;2136;48.502;9.194;2023-04-01T10:37:54;0.70;;;0.70;;
4244;SDS011;2136;48.502;9.194;2023-04-01T10:41:01;5.47;;;1.03;;
4244;SDS011;2136;48.502;9.194;2023-04-01T10:44:12;0.80;;;0.80;;
4244;SDS011;2136;48.502;9.194;2023-04-01T10:47:19;0.83;;;0.80;;
4244;SDS011;2136;48.502;9.194;2023-04-01T10:50:31;0.90;;;0.90;;
4244;SDS011;2136;48.502;9.194;2023-04-01T10:53:25;0.67;;;0.67;;
4244;SDS011;2136;48.502;9.194;2023-04-01T10:56:14;0.80;;;0.80;;
4244;SDS011;2136;48.502;9.194;2023-04-01T10:59:15;1.23;;;0.70;;
4244;SDS011;2136;48.502;9.194;2023-04-01T11:02:06;0.70;;;0.70;;
4244;SDS011;2136;48.502;9.194;2023-04-01T11:05:07;0.67;;;0.67;;
4244;SDS011;2136;48.502;9.194;2023-04-01T11:08:11;0.73;;;0.60;;
4244;SDS011;2136;48.502;9.194;2023-04-01T11:14:15;1.27;;;0.90;;
4244;SDS011;2136;48.502;9.194;2023-04-01T11:20:20;0.60;;;0.60;;
4244;SDS011;2136;48.502;9.194;2023-04-01T11:23:04;0.70;;;0.70;;
4244;SDS011;2136;48.502;9.194;2023-04-01T11:26:00;1.60;;;1.10;;
4244;SDS011;2136;48.502;9.194;2023-04-01T11:28:50;0.90;;;0.80;;
4244;SDS011;2136;48.502;9.194;2023-04-01T11:31:39;0.87;;;0.60;;
4244;SDS011;2136;48.502;9.194;2023-04-01T11:34:16;0.70;;;0.70;;
4244;SDS011;2136;48.502;9.194;2023-04-01T11:37:04;0.70;;;0.70;;
4244;SDS011;2136;48.502;9.194;2023-04-01T11:39:42;0.70;;;0.70;;
4244;SDS011;2136;48.502;9.194;2023-04-01T11:42:24;0.70;;;0.70;;
4244;SDS011;2136;48.502;9.194;2023-04-01T11:45:01;1.50;;;0.90;;
4244;SDS011;2136;48.502;9.194;2023-04-01T11:47:52;0.70;;;0.70;;
4244;SDS011;2136;48.502;9.194;2023-04-01T11:50:46;0.93;;;0.93;;
4244;SDS011;2136;48.502;9.194;2023-04-01T11:53:29;0.70;;;0.70;;
4244;SDS011;2136;48.502;9.194;2023-04-01T11:56:18;0.67;;;0.67;;
4244;SDS011;2136;48.502;9.194;2023-04-01T11:59:04;1.07;;;0.90;;
4244;SDS011;2136;48.502;9.194;2023-04-01T12:02:05;1.00;;;0.80;;
4244;SDS011;2136;48.502;9.194;2023-04-01T12:04:53;0.70;;;0.70;;
4244;SDS011;2136;48.502;9.194;2023-04-01T12:07:41;0.60;;;0.60;;
4244;SDS011;2136;48.502;9.194;2023-04-01T12:10:20;1.80;;;0.60;;
4244;SDS011;2136;48.502;9.194;2023-04-01T12:12:54;0.70;;;0.70;;
4244;SDS011;2136;48.502;9.194;2023-04-01T12:15:30;1.13;;;0.70;;
4244;SDS011;2136;48.502;9.194;2023-04-01T12:18:05;0.70;;;0.70;;
4244;SDS011;2136;48.502;9.194;2023-04-01T12:20:45;0.70;;;0.70;;
4244;SDS011;2136;48.502;9.194;2023-04-01T12:26:18;1.67;;;1.10;;
4244;SDS011;2136;48.502;9.194;2023-04-01T12:29:06;4.30;;;1.00;;
4244;SDS011;2136;48.502;9.194;2023-04-01T12:31:42;0.90;;;0.90;;
4244;SDS011;2136;48.502;9.194;2023-04-01T12:34:25;1.40;;;1.00;;
4244;SDS011;2136;48.502;9.194;2023-04-01T12:37:15;3.37;;;2.13;;
4244;SDS011;2136;48.502;9.194;2023-04-01T12:39:53;1.63;;;0.80;;
4244;SDS011;2136;48.502;9.194;2023-04-01T12:42:35;2.00;;;0.70;;
4244;SDS011;2136;48.502;9.194;2023-04-01T12:45:28;0.80;;;0.80;;
4244;SDS011;2136;48.502;9.194;2023-04-01T12:48:18;1.83;;;1.10;;
4244;SDS011;2136;48.502;9.194;2023-04-01T12:51:12;0.60;;;0.60;;
4244;SDS011;2136;48.502;9.194;2023-04-01T12:56:56;0.60;;;0.60;;
4244;SDS011;2136;48.502;9.194;2023-04-01T12:59:42;1.10;;;1.07;;
4244;SDS011;2136;48.502;9.194;2023-04-01T13:02:25;1.30;;;0.73;;
4244;SDS011;2136;48.502;9.194;2023-04-01T13:05:15;0.63;;;0.63;;
4244;SDS011;2136;48.502;9.194;2023-04-01T13:08:11;0.70;;;0.70;;
4244;SDS011;2136;48.502;9.194;2023-04-01T13:10:53;0.70;;;0.70;;
4244;SDS011;2136;48.502;9.194;2023-04-01T13:13:59;0.60;;;0.60;;
4244;SDS011;2136;48.502;9.194;2023-04-01T13:16:45;0.80;;;0.60;;
4244;SDS011;2136;48.502;9.194;2023-04-01T13:19:20;0.60;;;0.60;;
4244;SDS011;2136;48.502;9.194;2023-04-01T13:21:54;1.57;;;0.70;;
4244;SDS011;2136;48.502;9.194;2023-04-01T13:24:28;0.60;;;0.60;;
4244;SDS011;2136;48.502;9.194;2023-04-01T13:27:06;0.70;;;0.70;;
4244;SDS011;2136;48.502;9.194;2023-04-01T13:29:43;1.00;;;0.80;;
4244;SDS011;2136;48.502;9.194;2023-04-01T13:32:22;0.70;;;0.70;;
4244;SDS011;2136;48.502;9.194;2023-04-01T13:35:06;0.63;;;0.63;;
4244;SDS011;2136;48.502;9.194;2023-04-01T13:37:46;2.53;;;0.80;;
4244;SDS011;2136;48.502;9.194;2023-04-01T13:40:32;1.17;;;0.70;;
4244;SDS011;2136;48.502;9.194;2023-04-01T13:43:02;0.60;;;0.60;;
4244;SDS011;2136;48.502;9.194;2023-04-01T13:45:42;0.60;;;0.60;;
4244;SDS011;2136;48.502;9.194;2023-04-01T13:56:56;0.50;;;0.50;;
4244;SDS011;2136;48.502;9.194;2023-04-01T14:02:59;0.60;;;0.60;;
4244;SDS011;2136;48.502;9.194;2023-04-01T14:05:47;0.63;;;0.63;;
4244;SDS011;2136;48.502;9.194;2023-04-01T14:08:23;0.70;;;0.70;;
4244;SDS011;2136;48.502;9.194;2023-04-01T14:11:03;0.93;;;0.60;;
4244;SDS011;2136;48.502;9.194;2023-04-01T14:13:41;0.60;;;0.60;;
4244;SDS011;2136;48.502;9.194;2023-04-01T14:16:22;0.70;;;0.70;;
4244;SDS011;2136;48.502;9.194;2023-04-01T14:19:16;0.53;;;0.53;;
4244;SDS011;2136;48.502;9.194;2023-04-01T14:21:55;0.70;;;0.70;;
4244;SDS011;2136;48.502;9.194;2023-04-01T14:24:35;2.30;;;1.43;;
4244;SDS011;2136;48.502;9.194;2023-04-01T14:27:21;1.23;;;1.00;;
4244;SDS011;2136;48.502;9.194;2023-04-01T14:33:04;8.70;;;5.97;;
4244;SDS011;2136;48.502;9.194;2023-04-01T14:35:45;22.47;;;8.90;;
4244;SDS011;2136;48.502;9.194;2023-04-01T14:38:21;23.73;;;9.73;;
4244;SDS011;2136;48.502;9.194;2023-04-01T14:41:00;22.77;;;9.57;;
4244;SDS011;2136;48.502;9.194;2023-04-01T14:43:47;10.63;;;4.60;;
4244;SDS011;2136;48.502;9.194;2023-04-01T14:46:46;1.83;;;1.10;;
4244;SDS011;2136;48.502;9.194;2023-04-01T14:49:38;6.57;;;4.00;;
4244;SDS011;2136;48.502;9.194;2023-04-01T14:52:11;1.00;;;1.00;;
4244;SDS011;2136;48.502;9.194;2023-04-01T14:54:42;5.37;;;3.70;;
4244;SDS011;2136;48.502;9.194;2023-04-01T14:57:11;1.70;;;1.47;;
4244;SDS011;2136;48.502;9.194;2023-04-01T14:59:40;1.47;;;1.30;;
4244;SDS011;2136;48.502;9.194;2023-04-01T15:02:15;2.10;;;1.90;;
4244;SDS011;2136;48.502;9.194;2023-04-01T15:04:57;2.10;;;1.10;;
4244;SDS011;2136;48.502;9.194;2023-04-01T15:10:49;1.30;;;1.10;;
4244;SDS011;2136;48.502;9.194;2023-04-01T15:13:41;1.97;;;1.77;;
4244;SDS011;2136;48.502;9.194;2023-04-01T15:16:25;2.50;;;0.80;;
4244;SDS011;2136;48.502;9.194;2023-04-01T15:19:00;1.00;;;0.70;;
4244;SDS011;2136;48.502;9.194;2023-04-01T15:21:41;0.70;;;0.70;;
4244;SDS011;2136;48.502;9.194;2023-04-01T15:24:21;0.97;;;0.97;;
4244;SDS011;2136;48.502;9.194;2023-04-01T15:27:02;1.37;;;0.90;;
4244;SDS011;2136;48.502;9.194;2023-04-01T15:32:30;0.70;;;0.70;;
4244;SDS011;2136;48.502;9.194;2023-04-01T15:35:11;2.00;;;1.37;;
4244;SDS011;2136;48.502;9.194;2023-04-01T15:37:46;1.17;;;1.07;;
4244;SDS011;2136;48.502;9.194;2023-04-01T15:40:22;0.90;;;0.90;;
4244;SDS011;2136;48.502;9.194;2023-04-01T15:42:57;1.17;;;0.70;;
4244;SDS011;2136;48.502;9.194;2023-04-01T15:45:39;1.00;;;0.80;;
4244;SDS011;2136;48.502;9.194;2023-04-01T15:48:17;2.43;;;1.43;;
4244;SDS011;2136;48.502;9.194;2023-04-01T15:50:59;0.97;;;0.87;;
4244;SDS011;2136;48.502;9.194;2023-04-01T15:53:44;1.00;;;0.80;;
4244;SDS011;2136;48.502;9.194;2023-04-01T15:56:47;7.43;;;1.80;;
4244;SDS011;2136;48.502;9.194;2023-04-01T15:59:44;1.10;;;1.10;;
4244;SDS011;2136;48.502;9.194;2023-04-01T16:02:33;2.70;;;2.50;;
4244;SDS011;2136;48.502;9.194;2023-04-01T16:05:07;0.87;;;0.87;;
4244;SDS011;2136;48.502;9.194;2023-04-01T16:07:52;2.40;;;0.73;;
4244;SDS011;2136;48.502;9.194;2023-04-01T16:10:31;0.70;;;0.70;;
4244;SDS011;2136;48.502;9.194;2023-04-01T16:13:12;1.57;;;1.47;;
4244;SDS011;2136;48.502;9.194;2023-04-01T16:15:53;2.30;;;1.00;;
4244;SDS011;2136;48.502;9.194;2023-04-01T16:18:33;1.17;;;0.97;;
4244;SDS011;2136;48.502;9.194;2023-04-01T16:21:21;2.70;;;1.20;;
4244;SDS011;2136;48.502;9.194;2023-04-01T16:24:01;1.03;;;1.03;;
4244;SDS011;2136;48.502;9.194;2023-04-01T16:26:37;2.67;;;1.63;;
4244;SDS011;2136;48.502;9.194;2023-04-01T16:29:11;1.23;;;1.13;;
4244;SDS011;2136;48.502;9.194;2023-04-01T16:31:50;1.10;;;1.00;;
4244;SDS011;2136;48.502;9.194;2023-04-01T16:34:24;1.23;;;1.13;;
4244;SDS011;2136;48.502;9.194;2023-04-01T16:36:59;1.70;;;1.60;;
4244;SDS011;2136;48.502;9.194;2023-04-01T16:39:33;1.73;;;1.47;;
4244;SDS011;2136;48.502;9.194;2023-04-01T16:45:02;0.90;;;0.90;;
4244;SDS011;2136;48.502;9.194;2023-04-01T16:47:45;1.20;;;1.10;;
4244;SDS011;2136;48.502;9.194;2023-04-01T16:50:17;1.67;;;1.30;;
4244;SDS011;2136;48.502;9.194;2023-04-01T16:52:53;1.20;;;1.10;;
4244;SDS011;2136;48.502;9.194;2023-04-01T16:55:33;1.10;;;1.07;;
4244;SDS011;2136;48.502;9.194;2023-04-01T16:58:02;2.97;;;2.10;;
4244;SDS011;2136;48.502;9.194;2023-04-01T17:00:31;4.30;;;3.03;;
4244;SDS011;2136;48.502;9.194;2023-04-01T17:03:08;8.73;;;3.77;;
4244;SDS011;2136;48.502;9.194;2023-04-01T17:05:45;4.77;;;3.23;;
4244;SDS011;2136;48.502;9.194;2023-04-01T17:08:28;2.40;;;1.63;;
4244;SDS011;2136;48.502;9.194;2023-04-01T17:11:11;4.60;;;2.37;;
4244;SDS011;2136;48.502;9.194;2023-04-01T17:13:46;3.47;;;2.70;;
4244;SDS011;2136;48.502;9.194;2023-04-01T17:16:27;2.00;;;1.90;;
4244;SDS011;2136;48.502;9.194;2023-04-01T17:19:13;3.50;;;1.87;;
4244;SDS011;2136;48.502;9.194;2023-04-01T17:21:56;3.62;;;2.80;;
4244;SDS011;2136;48.502;9.194;2023-04-01T17:24:32;5.80;;;3.10;;
4244;SDS011;2136;48.502;9.194;2023-04-01T17:27:16;3.00;;;2.30;;